Nova Petropolis, Brazil
Current Conditions -  °F | °C
As of 10:00 AM on Thursday 30 Oct 2014 (Local Time) from SBCO Reporting Station
Broken Clouds Broken Clouds  
Wind Chill: 73°   Ceiling: 10000
Heat Index: 73°   Visibility: 6mi
Dew Point: 66°   Wind: 2mph
Humidity: 78%   Direction: 330°NNW
Pressure: 29.8"   Gusts: NA
Location:  29.38°S, 51.12°W
Report Text: SBCO 301200Z 33002KT 9999 SCT020 BKN100 23/19 Q1009
Loading
Personal Weather Stations






























Interactive Weather Map
Tropical Storm Tracking
New forecast layout! Learn more

10-Day Weather Forecast

Advertisements
Track Severe Weather on mobile